CCA4379 ZUCK-ZJHK
Flight info
| Callsign | CCA4379 |
|---|---|
| Flight time | N/A |
| Altitude | 33100 |
| Route | VILUS W180 ELBAV W181 P478 H68 P479 R339 BHY W70 NYB |
| Aircraft | A21N/M-SDE3FGHIRWYZ/EB1 |
Departure
| Time | 2026-04-27 02:41 |
|---|---|
| Airport | Chongqing Jiangbei International Airport (ZUCK) |
Arrival
| Time | N/A |
|---|---|
| Airport | Haikou Meilan International Airport (ZJHK) |
| Time | Latitude | Longitude | Altitude | Speed | Heading |
|---|---|---|---|---|---|
| 2026-04-27 02:40 | 29.43074 | 106.44207 | 23741 ft | 435 kts | 127° |
| 2026-04-27 02:41 | 29.41257 | 106.47028 | 24035 ft | 437 kts | 127° |
| 2026-04-27 02:41 | 29.39465 | 106.49809 | 24319 ft | 440 kts | 127° |
| 2026-04-27 02:41 | 29.37639 | 106.52637 | 24594 ft | 442 kts | 127° |
| 2026-04-27 02:41 | 29.35795 | 106.55491 | 24903 ft | 443 kts | 127° |
| 2026-04-27 02:42 | 29.33961 | 106.58325 | 25179 ft | 445 kts | 127° |
| 2026-04-27 02:42 | 29.32127 | 106.61159 | 25416 ft | 446 kts | 127° |
| 2026-04-27 02:42 | 29.30254 | 106.64052 | 25676 ft | 448 kts | 127° |
| 2026-04-27 02:42 | 29.28411 | 106.66898 | 25948 ft | 450 kts | 128° |
| 2026-04-27 02:43 | 29.26551 | 106.69772 | 26203 ft | 452 kts | 128° |
| 2026-04-27 02:43 | 29.24688 | 106.72646 | 26458 ft | 452 kts | 128° |
| 2026-04-27 02:43 | 29.22787 | 106.75574 | 26705 ft | 454 kts | 128° |
| 2026-04-27 02:43 | 29.20907 | 106.78473 | 26938 ft | 456 kts | 128° |
| 2026-04-27 02:44 | 29.19024 | 106.81373 | 27163 ft | 458 kts | 128° |
| 2026-04-27 02:44 | 29.17109 | 106.84319 | 27407 ft | 459 kts | 128° |
| 2026-04-27 02:44 | 29.15214 | 106.87234 | 27639 ft | 461 kts | 128° |
| 2026-04-27 02:44 | 29.13302 | 106.90170 | 27862 ft | 463 kts | 129° |
| 2026-04-27 02:45 | 29.11112 | 106.92915 | 28039 ft | 461 kts | 143° |
| 2026-04-27 02:45 | 29.08408 | 106.94754 | 28246 ft | 456 kts | 160° |
| 2026-04-27 02:45 | 29.05319 | 106.95644 | 28482 ft | 451 kts | 177° |
| 2026-04-27 02:45 | 29.02218 | 106.95696 | 28717 ft | 450 kts | 184° |
| 2026-04-27 02:46 | 28.99051 | 106.95623 | 28936 ft | 452 kts | 184° |
| 2026-04-27 02:46 | 28.95906 | 106.95552 | 29220 ft | 452 kts | 184° |
| 2026-04-27 02:46 | 28.92792 | 106.95489 | 29583 ft | 450 kts | 184° |
| 2026-04-27 02:46 | 28.89647 | 106.95435 | 29969 ft | 448 kts | 183° |
| 2026-04-27 02:47 | 28.86835 | 106.95394 | 30264 ft | 448 kts | 183° |
| 2026-04-27 02:47 | 28.85166 | 106.95373 | 30427 ft | 447 kts | 183° |
| 2026-04-27 02:47 | 28.78491 | 106.95293 | 31046 ft | 447 kts | 183° |
| 2026-04-27 02:48 | 28.73939 | 106.95242 | 31456 ft | 447 kts | 183° |
| 2026-04-27 02:48 | 28.70492 | 106.95200 | 31721 ft | 448 kts | 183° |
| 2026-04-27 02:48 | 28.67373 | 106.95164 | 31924 ft | 450 kts | 182° |
| 2026-04-27 02:48 | 28.64251 | 106.95129 | 32134 ft | 451 kts | 182° |
| 2026-04-27 02:49 | 28.61083 | 106.95091 | 32368 ft | 452 kts | 183° |
| 2026-04-27 02:49 | 28.57945 | 106.95054 | 32609 ft | 453 kts | 182° |
| 2026-04-27 02:49 | 28.54768 | 106.95013 | 32864 ft | 453 kts | 183° |
| 2026-04-27 02:49 | 28.51642 | 106.94977 | 33087 ft | 453 kts | 183° |
| 2026-04-27 02:50 | 28.45280 | 106.94898 | 33140 ft | 454 kts | 183° |
| 2026-04-27 02:50 | 28.39001 | 106.94825 | 33139 ft | 454 kts | 182° |
| 2026-04-27 02:51 | 28.32665 | 106.94749 | 33132 ft | 454 kts | 183° |
| 2026-04-27 02:51 | 28.26303 | 106.94679 | 33132 ft | 455 kts | 182° |
| 2026-04-27 02:52 | 28.19958 | 106.94875 | 33132 ft | 457 kts | 179° |
| 2026-04-27 02:52 | 28.13566 | 106.95231 | 33121 ft | 457 kts | 179° |
| 2026-04-27 02:53 | 28.07237 | 106.95585 | 33106 ft | 456 kts | 179° |
| 2026-04-27 02:53 | 28.00880 | 106.95917 | 33095 ft | 456 kts | 179° |
| 2026-04-27 02:54 | 27.94494 | 106.96237 | 33090 ft | 457 kts | 179° |
| 2026-04-27 02:54 | 27.88122 | 106.96564 | 33093 ft | 457 kts | 179° |
| 2026-04-27 02:55 | 27.81745 | 106.96952 | 33099 ft | 457 kts | 178° |
| 2026-04-27 02:55 | 27.75380 | 106.97349 | 33104 ft | 458 kts | 178° |
| 2026-04-27 02:56 | 27.69009 | 106.97737 | 33105 ft | 458 kts | 179° |
| 2026-04-27 02:56 | 27.62655 | 106.98122 | 33102 ft | 458 kts | 179° |
| 2026-04-27 02:57 | 27.56291 | 106.98506 | 33099 ft | 457 kts | 178° |
| 2026-04-27 02:57 | 27.49918 | 106.98707 | 33096 ft | 458 kts | 181° |
| 2026-04-27 02:58 | 27.43530 | 106.98914 | 33094 ft | 459 kts | 179° |
| 2026-04-27 02:58 | 27.37161 | 106.99271 | 33099 ft | 460 kts | 179° |
| 2026-04-27 02:59 | 27.30756 | 106.99628 | 33099 ft | 460 kts | 179° |
| 2026-04-27 02:59 | 27.24369 | 106.99980 | 33102 ft | 459 kts | 179° |
| 2026-04-27 03:00 | 27.17953 | 107.00327 | 33101 ft | 459 kts | 179° |
| 2026-04-27 03:00 | 27.11549 | 107.00670 | 33102 ft | 460 kts | 179° |
| 2026-04-27 03:01 | 27.05166 | 107.01014 | 33100 ft | 461 kts | 178° |
| 2026-04-27 03:01 | 26.98746 | 107.01358 | 33100 ft | 461 kts | 178° |
| 2026-04-27 03:02 | 26.92305 | 107.01704 | 33096 ft | 461 kts | 179° |
| 2026-04-27 03:02 | 26.85926 | 107.02012 | 33104 ft | 459 kts | 179° |
| 2026-04-27 03:03 | 26.76328 | 107.02483 | 33108 ft | 458 kts | 179° |
| 2026-04-27 03:04 | 26.70000 | 107.02817 | 33107 ft | 458 kts | 179° |
| 2026-04-27 03:04 | 26.63606 | 107.03150 | 33108 ft | 457 kts | 179° |
| 2026-04-27 03:05 | 26.57266 | 107.03478 | 33111 ft | 457 kts | 179° |
| 2026-04-27 03:05 | 26.50876 | 107.03802 | 33110 ft | 457 kts | 179° |
| 2026-04-27 03:06 | 26.44931 | 107.04100 | 33116 ft | 456 kts | 179° |
| 2026-04-27 03:06 | 26.38272 | 107.04402 | 33115 ft | 458 kts | 177° |
| 2026-04-27 03:07 | 26.32010 | 107.05851 | 33120 ft | 462 kts | 163° |
| 2026-04-27 03:07 | 26.26205 | 107.08969 | 33125 ft | 465 kts | 148° |
| 2026-04-27 03:08 | 26.21198 | 107.13552 | 33127 ft | 468 kts | 137° |
| 2026-04-27 03:08 | 26.16592 | 107.18651 | 33114 ft | 467 kts | 136° |
| 2026-04-27 03:09 | 26.11979 | 107.23764 | 33106 ft | 467 kts | 136° |
| 2026-04-27 03:09 | 26.07388 | 107.28807 | 33100 ft | 467 kts | 136° |
| 2026-04-27 03:10 | 26.02762 | 107.33869 | 33093 ft | 467 kts | 136° |
| 2026-04-27 03:10 | 25.98103 | 107.38959 | 33091 ft | 468 kts | 137° |
| 2026-04-27 03:11 | 25.93481 | 107.43999 | 33096 ft | 468 kts | 136° |
| 2026-04-27 03:11 | 25.88840 | 107.49056 | 33093 ft | 468 kts | 136° |
| 2026-04-27 03:12 | 25.84185 | 107.54120 | 33096 ft | 468 kts | 136° |
| 2026-04-27 03:12 | 25.79529 | 107.59188 | 33095 ft | 468 kts | 136° |
| 2026-04-27 03:13 | 25.74909 | 107.64214 | 33095 ft | 467 kts | 136° |
| 2026-04-27 03:13 | 25.70247 | 107.69278 | 33087 ft | 467 kts | 136° |
| 2026-04-27 03:14 | 25.65635 | 107.74333 | 33082 ft | 467 kts | 136° |
| 2026-04-27 03:14 | 25.61019 | 107.79394 | 33079 ft | 467 kts | 136° |
| 2026-04-27 03:15 | 25.56434 | 107.84408 | 33077 ft | 466 kts | 136° |
| 2026-04-27 03:15 | 25.51785 | 107.89435 | 33066 ft | 465 kts | 139° |
| 2026-04-27 03:16 | 25.46552 | 107.93597 | 33065 ft | 462 kts | 152° |
| 2026-04-27 03:16 | 25.40693 | 107.96381 | 33065 ft | 460 kts | 164° |
| 2026-04-27 03:17 | 25.34422 | 107.97743 | 33071 ft | 459 kts | 174° |
| 2026-04-27 03:17 | 25.28063 | 107.98508 | 33067 ft | 458 kts | 175° |
| 2026-04-27 03:18 | 25.21734 | 107.99258 | 33063 ft | 457 kts | 174° |
| 2026-04-27 03:18 | 25.15420 | 108.00017 | 33051 ft | 456 kts | 174° |
| 2026-04-27 03:19 | 25.09086 | 108.00787 | 33042 ft | 456 kts | 174° |
| 2026-04-27 03:19 | 25.02769 | 108.01553 | 33031 ft | 457 kts | 174° |
| 2026-04-27 03:20 | 24.96425 | 108.02326 | 33022 ft | 458 kts | 174° |
| 2026-04-27 03:20 | 24.90077 | 108.03099 | 33019 ft | 458 kts | 174° |
| 2026-04-27 03:21 | 24.83714 | 108.03870 | 33020 ft | 459 kts | 174° |
| 2026-04-27 03:21 | 24.77368 | 108.04639 | 33018 ft | 459 kts | 174° |
| 2026-04-27 03:22 | 24.71031 | 108.05409 | 33020 ft | 458 kts | 174° |
| 2026-04-27 03:22 | 24.64689 | 108.06175 | 33023 ft | 460 kts | 175° |
| 2026-04-27 03:23 | 24.58309 | 108.06945 | 33035 ft | 461 kts | 175° |
| 2026-04-27 03:23 | 24.53026 | 108.07584 | 33036 ft | 463 kts | 175° |